Detall de PIREP

Printer-friendly versionPDF version

[2014/04/05 06:18:00]
Flight IATA:CT3312
Pilot Number:012
Company ICAO:CAT
Aircraft Type:A343/E
PAX:295
Departing Airport: LEZG
Destination Airport: LTBA
Alternate Airport:LTAC
Online: VATSIM
Route:PONEN/M079F380 UN870 BCN UN725 ORKUM/M079F390 UM603 EKI
Flight Level:F390
No Slew and time accel
No pause
Crash detect
Detect pilot in Cockpit between each 30 and 45 minutes
06:18 Zero fuel Weight: 345561 Lbs, Fuel Weight: 48406 Lbs
06:18 VATSIM:LEZG 050600Z 28014KT 9999 SCT045 12/08 Q1017
06:18 VATSIM:LTBA 050550Z 14007KT 100V180 6000 NSC 15/10 Q1014 NOSIG
06:18 Parking Brakes off
06:22 Take-off
06:22 Take off Weight: 392563 Lbs
06:22 Wind: 280º @ 014 Knots Heading: 298º
06:22 POS N41º 39´ 48´´ W001º 01´ 37´´
06:22 Gear Up: 193 Knots
06:22 Flaps:3 at 193 Knots
06:22 Flaps:1 at 211 Knots
06:22 Flaps:0 at 240 Knots
06:37 Wind:316º@067 Knots Heading: 085º Ground Speed:493 Knots Altitude 34150 ft
06:52 Wind:310º@047 Knots Heading: 100º Ground Speed: 507 Knots Altitude 38028 ft
07:07 Wind:313º@043 Knots Heading: 094º Ground Speed: 506 Knots Altitude 37913 ft
07:16 TOC
07:16 Fuel Weight: 30188 Lb
07:22 Wind:321º@035 Knots Heading: 080º Ground Speed: 488 Knots Altitude 38861 ft
07:37 Wind:324º@016 Knots Heading: 084º Ground Speed: 475 Knots Altitude 38799 ft
07:52 Wind:297º@017 Knots Heading: 107º Ground Speed: 485 Knots Altitude 38769 ft
08:07 Wind:257º@015 Knots Heading: 090º Ground Speed: 484 Knots Altitude 38795 ft
08:22 Wind:225º@024 Knots Heading: 095º Ground Speed: 487 Knots Altitude 38854 ft
08:37 Wind:220º@012 Knots Heading: 090º Ground Speed: 481 Knots Altitude 38940 ft
08:52 Wind:220º@054 Knots Heading: 084º Ground Speed: 511 Knots Altitude 38943 ft
08:58 TOD
08:58 Fuel Weight: 7544 Lb
09:07 Wind:247º@032 Knots Heading: 087º Ground Speed: 366 Knots Altitude 16502 ft
09:21 Flaps:1 at 212 Knots
09:21 Gear Down: 199 Knots
09:21 Flaps:3 at 196 Knots
09:22 Wind:000º@000 Knots Heading: 056º Ground Speed: 175 Knots Altitude 1948 ft
09:22 Flaps:4 at 172 Knots
09:22 Flaps:5 at 154 Knots
09:24 TouchDown:Rate -123 ft/min Speed: 136 Knots
09:24 VATSIM:LTBA 050850Z 00000KT CAVOK 17/07 Q1015 NOSIG
09:24 Land
09:24 Wind:000º@000 Knots
09:24 Heading: 058º
09:24 Flight Duration: 03:02
09:24 Landing Weight: 350843 Lbs
09:24 POS N40º 58´ 24´´ E028º 49´ 36´´
09:27 Parking brakes on
09:27 Block to Block Duration: 03:09
09:27 Final Fuel: 4530 Lbls
09:27 Spent Fuel: 43875 Lbls
09:27 Flight Length: 1404 NM
09:27 TOD Land Length: 138 NM

Exportar CSV

Powered by Drupal - Modified by Danger4k